Time;durP1;ratioP1;P1;durP2;ratioP2;P2;SDS_P1;SDS_P2;PMS_P1;PMS_P2;Temp;Humidity;BMP_temperature;BMP_pressure;BME280_temperature;BME280_humidity;BME280_pressure;Samples;Min_cycle;Max_cycle;Signal;HPM_P1;HPM_P2
2023/03/12 00:01:32;;;;;;;5.45;3.42;;;25.40;99.90;;;;;;4936214;29;20412;-53
2023/03/12 00:04:00;;;;;;;6.50;4.50;;;25.40;99.90;;;;;;4937652;29;20034;-52
2023/03/12 00:06:25;;;;;;;5.00;3.75;;;25.40;99.90;;;;;;4936431;29;20503;-53
2023/03/12 00:08:51;;;;;;;6.18;4.03;;;25.40;99.90;;;;;;4937083;29;20078;-53
2023/03/12 00:11:19;;;;;;;5.20;3.65;;;25.40;99.90;;;;;;4931788;29;20042;-53
2023/03/12 00:13:52;;;;;;;5.72;3.63;;;25.40;99.90;;;;;;4918668;29;20031;-52
2023/03/12 00:16:18;;;;;;;4.47;3.60;;;25.40;99.90;;;;;;4925018;29;20067;-53
2023/03/12 00:18:47;;;;;;;5.40;3.95;;;25.30;99.90;;;;;;4951616;29;20028;-53
2023/03/12 00:21:13;;;;;;;4.32;3.65;;;25.30;99.90;;;;;;4926360;29;20095;-52
2023/03/12 00:23:39;;;;;;;3.92;3.45;;;25.30;99.90;;;;;;4918033;29;20108;-53
2023/03/12 00:26:11;;;;;;;4.32;3.50;;;25.30;99.90;;;;;;4923539;29;20028;-53
2023/03/12 00:28:37;;;;;;;4.57;3.53;;;25.30;99.90;;;;;;4935041;29;20503;-53
2023/03/12 00:31:16;;;;;;;3.97;3.30;;;25.30;99.90;;;;;;4936120;29;20052;-54
2023/03/12 00:33:42;;;;;;;6.50;3.90;;;25.20;99.90;;;;;;4930091;29;20634;-53
2023/03/12 00:36:08;;;;;;;3.78;3.10;;;25.30;99.90;;;;;;4936071;29;20016;-53
2023/03/12 00:38:34;;;;;;;4.35;3.33;;;25.20;99.90;;;;;;4934207;29;20027;-53
2023/03/12 00:41:00;;;;;;;3.63;3.10;;;25.20;99.90;;;;;;4937356;29;20075;-53
2023/03/12 00:43:26;;;;;;;5.38;3.28;;;25.20;99.90;;;;;;4937499;29;20501;-53
2023/03/12 00:45:52;;;;;;;3.13;2.80;;;25.20;99.90;;;;;;4937227;29;20099;-54
2023/03/12 00:48:17;;;;;;;3.60;3.15;;;25.20;99.90;;;;;;4935968;29;20372;-53
2023/03/12 00:50:43;;;;;;;3.60;2.97;;;25.10;99.90;;;;;;4937275;29;20047;-53
2023/03/12 00:53:09;;;;;;;3.97;3.20;;;25.10;99.90;;;;;;4937119;29;20134;-52
2023/03/12 00:55:35;;;;;;;4.57;3.10;;;25.20;99.90;;;;;;4937066;29;20028;-53
2023/03/12 00:58:00;;;;;;;5.28;3.47;;;25.10;99.90;;;;;;4937192;29;20026;-54
2023/03/12 01:00:26;;;;;;;3.85;3.13;;;25.10;99.90;;;;;;4940392;23;20063;-48
2023/03/12 01:02:52;;;;;;;4.28;3.47;;;25.10;99.90;;;;;;4917980;29;20024;-48
2023/03/12 01:05:18;;;;;;;4.28;3.70;;;25.10;99.90;;;;;;4917828;29;20024;-48
2023/03/12 01:07:44;;;;;;;3.63;3.10;;;25.10;99.90;;;;;;4917842;29;20177;-47
2023/03/12 01:10:13;;;;;;;4.35;3.38;;;25.10;99.90;;;;;;4917689;29;20035;-49
2023/03/12 01:12:40;;;;;;;4.90;2.88;;;25.10;99.90;;;;;;4916759;29;20389;-50
2023/03/12 01:15:06;;;;;;;4.55;2.85;;;25.00;99.90;;;;;;4917729;29;20488;-49
2023/03/12 01:17:32;;;;;;;3.93;3.47;;;25.00;99.90;;;;;;4917513;29;20123;-50
2023/03/12 01:19:58;;;;;;;6.15;3.28;;;25.00;99.90;;;;;;4917745;29;20073;-50
2023/03/12 01:22:24;;;;;;;3.67;2.85;;;25.00;99.90;;;;;;4917651;29;20036;-50
2023/03/12 01:24:50;;;;;;;3.10;2.80;;;25.00;99.90;;;;;;4917457;29;20028;-49
2023/03/12 01:27:15;;;;;;;3.95;3.10;;;25.00;99.90;;;;;;4917436;29;20099;-49
2023/03/12 01:29:41;;;;;;;4.13;3.03;;;25.00;99.90;;;;;;4917351;29;20032;-50
2023/03/12 01:32:07;;;;;;;3.50;2.80;;;25.00;99.90;;;;;;4917365;29;20024;-49
2023/03/12 01:34:34;;;;;;;3.55;3.17;;;25.00;99.90;;;;;;4917264;29;20474;-50
2023/03/12 01:37:00;;;;;;;5.72;2.65;;;25.00;99.90;;;;;;4917662;29;20388;-50
2023/03/12 01:39:26;;;;;;;2.95;2.47;;;24.90;99.90;;;;;;4917202;29;20475;-49
2023/03/12 01:41:52;;;;;;;3.80;3.40;;;24.90;99.90;;;;;;4917188;29;20063;-49
2023/03/12 01:44:18;;;;;;;4.30;3.40;;;25.00;99.90;;;;;;4917304;29;20032;-50
2023/03/12 01:46:44;;;;;;;3.25;2.95;;;24.90;99.90;;;;;;4917093;29;20433;-50
2023/03/12 01:49:24;;;;;;;2.83;2.53;;;24.90;99.90;;;;;;4916146;29;20020;-49
2023/03/12 01:52:34;;;;;;;4.95;3.22;;;24.90;99.90;;;;;;4917066;29;20668;-49
2023/03/12 01:55:10;;;;;;;3.95;3.40;;;24.90;99.90;;;;;;4896132;29;20032;-49
2023/03/12 01:57:51;;;;;;;3.55;3.13;;;24.90;99.90;;;;;;4913141;29;20039;-50
2023/03/12 02:00:24;;;;;;;4.03;3.22;;;24.90;99.90;;;;;;4917177;29;20128;-50
2023/03/12 02:02:51;;;;;;;3.95;3.17;;;24.80;99.90;;;;;;4916856;29;20087;-50
2023/03/12 02:05:27;;;;;;;4.95;3.67;;;24.90;99.90;;;;;;4916839;29;20059;-50
2023/03/12 02:07:53;;;;;;;4.32;3.17;;;24.80;99.90;;;;;;4916832;29;20040;-50
2023/03/12 02:10:20;;;;;;;3.88;3.13;;;24.80;99.90;;;;;;4916828;29;20477;-49
2023/03/12 02:12:46;;;;;;;4.35;3.50;;;24.80;99.90;;;;;;4916675;29;20024;-50
2023/03/12 02:15:12;;;;;;;5.20;3.83;;;24.80;99.90;;;;;;4916657;29;20492;-50
2023/03/12 02:17:39;;;;;;;4.80;3.90;;;24.80;99.90;;;;;;4916685;29;20028;-49
2023/03/12 02:20:19;;;;;;;4.85;3.90;;;24.70;99.90;;;;;;4916828;29;20028;-50
2023/03/12 02:22:56;;;;;;;5.45;3.78;;;24.70;99.90;;;;;;4916654;29;20032;-50
2023/03/12 02:25:34;;;;;;;4.28;3.53;;;24.70;99.90;;;;;;4916864;29;20032;-49
2023/03/12 02:28:03;;;;;;;5.28;4.00;;;24.70;99.90;;;;;;4916396;29;20036;-50
2023/03/12 02:30:30;;;;;;;5.97;4.05;;;24.70;99.90;;;;;;4916233;29;20028;-50
2023/03/12 02:33:03;;;;;;;7.25;5.40;;;24.70;99.90;;;;;;4916344;29;20036;-50
2023/03/12 02:35:29;;;;;;;7.13;5.13;;;24.70;99.90;;;;;;4916341;29;20032;-50
2023/03/12 02:37:56;;;;;;;6.25;4.65;;;24.70;99.90;;;;;;4916333;29;20024;-49
2023/03/12 02:40:37;;;;;;;6.43;5.40;;;24.70;99.90;;;;;;4916315;29;20024;-49
2023/03/12 02:43:06;;;;;;;5.88;4.60;;;24.70;99.90;;;;;;4916688;29;20016;-49
2023/03/12 02:45:34;;;;;;;8.00;5.28;;;24.70;99.90;;;;;;4916162;29;20392;-50
2023/03/12 02:48:01;;;;;;;8.55;5.00;;;24.70;99.90;;;;;;4916139;29;20043;-49
2023/03/12 02:50:27;;;;;;;6.97;5.55;;;24.60;99.90;;;;;;4916140;29;20120;-49
2023/03/12 02:52:53;;;;;;;8.18;5.90;;;24.70;99.90;;;;;;4930727;29;20123;-49
2023/03/12 02:55:19;;;;;;;7.75;5.38;;;24.60;99.90;;;;;;4916111;29;20036;-49
2023/03/12 02:57:44;;;;;;;7.57;5.40;;;24.60;99.90;;;;;;4916232;29;20078;-49
2023/03/12 03:00:12;;;;;;;7.45;5.60;;;24.60;99.90;;;;;;4916092;29;20215;-49
2023/03/12 03:02:39;;;;;;;6.25;5.53;;;24.60;99.90;;;;;;4916058;29;20028;-50
2023/03/12 03:05:06;;;;;;;7.13;5.40;;;24.60;99.90;;;;;;4916201;29;20099;-49
2023/03/12 03:07:31;;;;;;;7.00;5.30;;;24.60;99.90;;;;;;4915968;29;20040;-50
2023/03/12 03:10:02;;;;;;;7.47;5.78;;;24.60;99.90;;;;;;4915987;29;20103;-50
2023/03/12 03:12:29;;;;;;;10.52;6.50;;;24.60;99.90;;;;;;4916064;29;20036;-49
2023/03/12 03:14:55;;;;;;;8.20;5.77;;;24.60;99.90;;;;;;4916002;29;20035;-49
2023/03/12 03:17:23;;;;;;;8.45;6.38;;;24.60;99.90;;;;;;4915700;29;20350;-49
2023/03/12 03:19:49;;;;;;;;;;;24.50;99.90;;;;;;4907265;29;20031;-49
2023/03/12 03:22:15;;;;;;;7.60;5.70;;;24.50;99.90;;;;;;4897852;29;19907;-49
2023/03/12 03:24:40;;;;;;;8.88;5.80;;;24.50;99.90;;;;;;4915553;29;20400;-49
2023/03/12 03:27:07;;;;;;;8.68;6.50;;;24.50;99.90;;;;;;4915438;29;20037;-49
2023/03/12 03:29:33;;;;;;;8.18;6.00;;;24.50;99.90;;;;;;4915345;29;20111;-49
2023/03/12 03:31:59;;;;;;;8.32;6.22;;;24.50;99.90;;;;;;4913364;29;20115;-49
2023/03/12 03:34:24;;;;;;;7.45;6.18;;;24.50;99.90;;;;;;4913667;29;20128;-49
2023/03/12 03:36:50;;;;;;;7.65;6.07;;;24.50;99.90;;;;;;4914886;29;20107;-50
2023/03/12 03:39:16;;;;;;;7.47;5.45;;;24.50;99.90;;;;;;4913195;29;20476;-49
2023/03/12 03:41:42;;;;;;;8.68;6.25;;;24.50;99.90;;;;;;4914409;29;20162;-49
2023/03/12 03:44:08;;;;;;;7.22;5.55;;;24.50;99.90;;;;;;4915118;29;20032;-49
2023/03/12 03:46:34;;;;;;;7.88;6.18;;;24.50;99.90;;;;;;4914306;29;20366;-49
2023/03/12 03:49:00;;;;;;;7.75;5.47;;;24.40;99.90;;;;;;4914780;29;20390;-49
2023/03/12 03:51:27;;;;;;;8.30;6.50;;;24.40;99.90;;;;;;4914374;29;20024;-49
2023/03/12 03:53:53;;;;;;;9.02;5.20;;;24.40;99.90;;;;;;4914831;29;20038;-49
2023/03/12 03:56:19;;;;;;;8.05;5.88;;;24.40;99.90;;;;;;4914281;29;20020;-49
2023/03/12 03:58:45;;;;;;;8.35;6.00;;;24.40;99.90;;;;;;4914379;29;20028;-49
2023/03/12 04:01:13;;;;;;;7.25;5.38;;;24.40;99.90;;;;;;4913323;29;20056;-49
2023/03/12 04:03:39;;;;;;;;;;;24.40;99.90;;;;;;4915238;29;20100;-50
2023/03/12 04:06:05;;;;;;;8.88;5.50;;;24.40;99.90;;;;;;4912567;29;20379;-49
2023/03/12 04:08:34;;;;;;;7.77;5.00;;;24.40;99.90;;;;;;4913275;29;20032;-49
2023/03/12 04:11:13;;;;;;;9.65;6.20;;;24.30;99.90;;;;;;4915530;29;20461;-50
2023/03/12 04:13:40;;;;;;;7.78;5.95;;;24.30;99.90;;;;;;4918520;29;20028;-49
2023/03/12 04:16:07;;;;;;;7.13;5.35;;;24.30;99.90;;;;;;4918045;29;20031;-49
2023/03/12 04:18:34;;;;;;;8.07;5.67;;;24.30;99.90;;;;;;4918806;29;20032;-49
2023/03/12 04:21:00;;;;;;;8.23;5.95;;;24.30;99.90;;;;;;4918761;29;20473;-49
2023/03/12 04:23:26;;;;;;;7.15;5.57;;;24.30;99.90;;;;;;4918884;29;20038;-50
2023/03/12 04:25:52;;;;;;;7.72;4.78;;;24.30;99.90;;;;;;4917951;29;20440;-50
2023/03/12 04:28:18;;;;;;;7.32;5.45;;;24.30;99.90;;;;;;4918321;29;20480;-50
2023/03/12 04:30:44;;;;;;;7.25;5.13;;;24.30;99.90;;;;;;4918545;29;20108;-49
2023/03/12 04:33:09;;;;;;;7.35;4.93;;;24.30;99.90;;;;;;4918932;29;20469;-49
2023/03/12 04:35:35;;;;;;;7.03;4.70;;;24.30;99.90;;;;;;4918279;29;20083;-49
2023/03/12 04:38:01;;;;;;;5.80;5.10;;;24.30;99.90;;;;;;4917165;29;20465;-49
2023/03/12 04:40:27;;;;;;;9.70;5.35;;;24.20;99.90;;;;;;4918458;29;20026;-49
2023/03/12 04:42:56;;;;;;;6.47;5.10;;;24.20;99.90;;;;;;4918215;29;20067;-49
2023/03/12 04:45:22;;;;;;;6.57;5.15;;;24.20;99.90;;;;;;4917218;29;20376;-49
2023/03/12 04:47:47;;;;;;;7.85;5.82;;;24.20;99.90;;;;;;4918009;29;20047;-49
2023/03/12 04:50:14;;;;;;;8.38;5.70;;;24.20;99.90;;;;;;4918495;29;20049;-49
2023/03/12 04:52:39;;;;;;;6.82;5.07;;;24.20;99.90;;;;;;4918488;29;20032;-49
2023/03/12 04:55:06;;;;;;;8.05;5.32;;;24.20;99.90;;;;;;4916881;29;20032;-50
2023/03/12 04:57:32;;;;;;;6.05;4.70;;;24.20;99.90;;;;;;4917659;29;20032;-49
2023/03/12 04:59:57;;;;;;;8.30;5.20;;;24.20;99.90;;;;;;4917527;29;20559;-49
2023/03/12 05:02:23;;;;;;;5.32;4.05;;;24.20;99.90;;;;;;4918235;29;20064;-50
2023/03/12 05:04:49;;;;;;;5.82;4.28;;;24.10;99.90;;;;;;4917965;29;20107;-49
2023/03/12 05:07:15;;;;;;;5.47;4.70;;;24.10;99.90;;;;;;4917776;29;20055;-49
2023/03/12 05:09:40;;;;;;;5.97;4.30;;;24.10;99.90;;;;;;4918060;29;20032;-49
2023/03/12 05:12:06;;;;;;;6.20;4.43;;;24.10;99.90;;;;;;4917884;29;20453;-49
2023/03/12 05:14:32;;;;;;;6.53;4.60;;;24.10;99.90;;;;;;4917793;29;20020;-48
2023/03/12 05:16:58;;;;;;;5.78;4.30;;;24.10;99.90;;;;;;4917568;29;20028;-49
2023/03/12 05:19:24;;;;;;;6.03;4.65;;;24.10;99.90;;;;;;4917648;29;20391;-49
2023/03/12 05:21:49;;;;;;;7.15;4.40;;;24.10;99.90;;;;;;4917620;29;20032;-49
2023/03/12 05:24:15;;;;;;;6.40;4.57;;;24.10;99.90;;;;;;4917640;29;20016;-49
2023/03/12 05:26:42;;;;;;;7.32;5.05;;;24.10;99.90;;;;;;4917445;29;20044;-49
2023/03/12 05:29:07;;;;;;;7.68;5.30;;;24.10;99.90;;;;;;4916941;29;20088;-49
2023/03/12 05:31:34;;;;;;;7.10;5.03;;;24.00;99.90;;;;;;4917418;29;20029;-49
2023/03/12 05:34:01;;;;;;;5.85;4.63;;;24.10;99.90;;;;;;4917430;29;20473;-49
2023/03/12 05:36:27;;;;;;;6.63;5.22;;;24.10;99.90;;;;;;4917368;29;20370;-50
2023/03/12 05:38:53;;;;;;;6.25;5.10;;;24.10;99.90;;;;;;4917216;29;20028;-50
2023/03/12 05:41:21;;;;;;;9.90;5.45;;;24.00;99.90;;;;;;4916027;29;20099;-49
2023/03/12 05:43:47;;;;;;;8.00;5.30;;;24.00;99.90;;;;;;4917379;29;20028;-50
2023/03/12 05:46:14;;;;;;;8.98;6.53;;;24.00;99.90;;;;;;4917315;29;20039;-49
2023/03/12 05:48:40;;;;;;;7.80;5.67;;;24.00;99.90;;;;;;4917202;29;20408;-49
2023/03/12 05:51:06;;;;;;;6.53;5.07;;;24.00;99.90;;;;;;4916975;29;20036;-50
2023/03/12 05:53:31;;;;;;;6.57;5.13;;;24.00;99.90;;;;;;4912481;29;20029;-50
2023/03/12 05:56:06;;;;;;;7.50;5.63;;;24.00;99.90;;;;;;4898225;29;20068;-50
2023/03/12 05:58:34;;;;;;;7.15;5.47;;;24.00;99.90;;;;;;4896734;29;20021;-49
2023/03/12 06:01:01;;;;;;;7.28;5.82;;;24.00;99.90;;;;;;4911981;29;20048;-50
2023/03/12 06:03:27;;;;;;;7.57;5.50;;;24.00;99.90;;;;;;4915787;29;20028;-50
2023/03/12 06:05:55;;;;;;;8.05;5.88;;;24.00;99.90;;;;;;4931410;29;20056;-50
2023/03/12 06:08:22;;;;;;;8.23;5.22;;;23.90;99.90;;;;;;4915927;29;20044;-50
2023/03/12 06:10:53;;;;;;;8.82;5.40;;;23.90;99.90;;;;;;4916810;29;20107;-50
2023/03/12 06:13:24;;;;;;;7.18;4.85;;;23.90;99.90;;;;;;4917023;29;20031;-50
2023/03/12 06:15:49;;;;;;;7.75;5.25;;;23.90;99.90;;;;;;4916838;29;20024;-49
2023/03/12 06:18:15;;;;;;;6.07;5.30;;;23.90;99.90;;;;;;4916993;29;20553;-50
2023/03/12 06:20:41;;;;;;;6.00;5.28;;;23.90;99.90;;;;;;4915261;29;20084;-50
2023/03/12 06:23:07;;;;;;;5.82;4.97;;;23.90;99.90;;;;;;4916598;29;20020;-49
2023/03/12 06:25:33;;;;;;;7.53;5.28;;;23.90;99.90;;;;;;4916492;29;20381;-49
2023/03/12 06:27:58;;;;;;;5.97;4.85;;;23.90;99.90;;;;;;4916424;29;20036;-49
2023/03/12 06:30:26;;;;;;;6.82;5.30;;;23.90;99.90;;;;;;4916491;29;20028;-50
2023/03/12 06:32:52;;;;;;;7.53;5.70;;;23.80;99.90;;;;;;4916626;29;20083;-49
2023/03/12 06:35:17;;;;;;;6.72;5.00;;;23.80;99.90;;;;;;4915863;29;20048;-49
2023/03/12 06:37:43;;;;;;;8.10;5.65;;;23.80;99.90;;;;;;4916542;29;20040;-50
2023/03/12 06:40:11;;;;;;;7.43;5.13;;;23.80;99.90;;;;;;4916359;29;20068;-49
2023/03/12 06:42:38;;;;;;;7.43;5.55;;;23.80;99.90;;;;;;4914953;29;20115;-50
2023/03/12 06:45:04;;;;;;;6.03;4.72;;;23.80;99.90;;;;;;4916128;29;20111;-49
2023/03/12 06:47:30;;;;;;;8.20;6.20;;;23.80;99.90;;;;;;4915959;29;20044;-49
2023/03/12 06:49:56;;;;;;;7.28;5.38;;;23.80;99.90;;;;;;4916043;29;20472;-52
2023/03/12 06:52:22;;;;;;;7.72;6.03;;;23.80;99.90;;;;;;4915315;29;20032;-49
2023/03/12 06:54:47;;;;;;;7.15;4.90;;;23.80;99.90;;;;;;4914234;29;20458;-49
2023/03/12 06:57:15;;;;;;;6.47;4.75;;;23.70;99.90;;;;;;4909870;29;20043;-50
2023/03/12 06:59:41;;;;;;;;;;;23.70;99.90;;;;;;4896590;29;20040;-50
2023/03/12 07:02:10;;;;;;;6.93;5.68;;;23.80;99.90;;;;;;4895267;29;19907;-50
2023/03/12 07:04:36;;;;;;;8.70;6.60;;;23.70;99.90;;;;;;4897637;29;20025;-49
2023/03/12 07:07:02;;;;;;;9.05;5.93;;;23.70;99.90;;;;;;4897077;29;20155;-50
2023/03/12 07:09:27;;;;;;;8.48;6.32;;;23.70;99.90;;;;;;4897156;29;20389;-49
2023/03/12 07:11:53;;;;;;;7.65;6.28;;;23.70;99.90;;;;;;4897352;29;20020;-49
2023/03/12 07:14:20;;;;;;;10.50;6.90;;;23.70;99.90;;;;;;4898460;29;20032;-49
2023/03/12 07:16:46;;;;;;;10.87;7.93;;;23.70;99.90;;;;;;4915905;29;20020;-49
2023/03/12 07:19:12;;;;;;;10.20;6.68;;;23.70;99.90;;;;;;4915916;29;20557;-49
2023/03/12 07:21:38;;;;;;;9.07;7.50;;;23.70;99.90;;;;;;4916077;29;20036;-49
2023/03/12 07:24:06;;;;;;;12.18;8.25;;;23.70;99.90;;;;;;4915935;29;20039;-49
2023/03/12 07:26:34;;;;;;;12.73;9.65;;;23.70;99.90;;;;;;4914947;29;20533;-49
2023/03/12 07:29:00;;;;;;;15.25;10.98;;;23.70;99.90;;;;;;4915980;29;20425;-49
2023/03/12 07:31:26;;;;;;;14.10;10.55;;;23.80;99.90;;;;;;4915807;29;20032;-49
2023/03/12 07:33:51;;;;;;;11.25;8.70;;;23.80;99.90;;;;;;4916084;29;20477;-49
2023/03/12 07:36:17;;;;;;;10.45;8.52;;;23.80;99.90;;;;;;4914366;29;20036;-49
2023/03/12 07:38:43;;;;;;;11.02;8.27;;;23.80;99.90;;;;;;4915663;29;20439;-49
2023/03/12 07:41:09;;;;;;;14.05;9.57;;;23.80;99.90;;;;;;4915839;29;20028;-49
2023/03/12 07:43:35;;;;;;;13.85;10.07;;;23.80;99.90;;;;;;4915783;29;20384;-49
2023/03/12 07:46:01;;;;;;;13.05;9.48;;;23.80;99.90;;;;;;4916038;29;20036;-49
2023/03/12 07:48:27;;;;;;;11.63;8.32;;;23.90;99.90;;;;;;4919432;29;20031;-49
2023/03/12 07:50:52;;;;;;;11.82;9.32;;;23.90;99.90;;;;;;4919540;29;20024;-49
2023/03/12 07:53:18;;;;;;;12.82;9.25;;;23.90;99.90;;;;;;4919158;29;20024;-49
2023/03/12 07:55:45;;;;;;;11.38;9.13;;;23.90;99.90;;;;;;4918980;29;20034;-49
2023/03/12 07:58:12;;;;;;;12.02;9.30;;;23.90;99.90;;;;;;4919128;29;20031;-49
2023/03/12 08:00:38;;;;;;;12.52;9.70;;;23.90;99.90;;;;;;4918897;29;20555;-49
2023/03/12 08:03:04;;;;;;;10.43;8.52;;;23.90;99.90;;;;;;4919009;29;20048;-49
2023/03/12 08:05:29;;;;;;;13.18;9.10;;;23.90;99.90;;;;;;4918934;29;20032;-49
2023/03/12 08:07:55;;;;;;;13.02;9.73;;;23.90;99.90;;;;;;4919012;29;20503;-49
2023/03/12 08:10:21;;;;;;;15.73;10.05;;;23.90;99.90;;;;;;4918966;29;20031;-49
2023/03/12 08:12:47;;;;;;;12.52;9.45;;;24.00;99.90;;;;;;4918940;29;20028;-50
2023/03/12 08:15:13;;;;;;;13.32;10.02;;;24.00;99.90;;;;;;4918751;29;20036;-49
2023/03/12 08:17:40;;;;;;;14.02;10.38;;;24.00;99.90;;;;;;4918779;29;20067;-50
2023/03/12 08:20:09;;;;;;;13.88;10.05;;;24.00;99.90;;;;;;4918589;29;20030;-49
2023/03/12 08:22:37;;;;;;;14.27;9.98;;;24.00;99.90;;;;;;4918629;29;20486;-49
2023/03/12 08:25:02;;;;;;;;;;;24.00;99.90;;;;;;4918948;29;20032;-49
2023/03/12 08:27:29;;;;;;;13.98;9.88;;;24.10;99.90;;;;;;4918582;29;20392;-49
2023/03/12 08:29:54;;;;;;;13.80;10.35;;;24.00;99.90;;;;;;4918761;29;20148;-49
2023/03/12 08:32:20;;;;;;;12.23;9.68;;;24.10;99.90;;;;;;4917374;29;20107;-50
2023/03/12 08:34:46;;;;;;;13.30;10.23;;;24.00;99.90;;;;;;4918249;29;20503;-49
2023/03/12 08:37:12;;;;;;;14.55;10.77;;;24.00;99.90;;;;;;4918518;29;20043;-49
2023/03/12 08:39:38;;;;;;;16.20;10.95;;;24.10;99.90;;;;;;4918332;29;20097;-49
2023/03/12 08:42:04;;;;;;;15.40;11.18;;;24.10;99.90;;;;;;4918411;29;20038;-49
2023/03/12 08:44:30;;;;;;;13.95;10.50;;;24.10;99.90;;;;;;4918026;29;20503;-50
2023/03/12 08:46:56;;;;;;;16.15;11.57;;;24.10;99.90;;;;;;4918384;29;20044;-49
2023/03/12 08:49:22;;;;;;;15.02;11.52;;;24.10;99.90;;;;;;4916871;29;20127;-50
2023/03/12 08:51:48;;;;;;;16.35;11.27;;;24.10;99.90;;;;;;4916920;29;20037;-50
2023/03/12 08:54:14;;;;;;;16.23;12.13;;;24.10;99.90;;;;;;4917895;29;20028;-49
2023/03/12 08:56:42;;;;;;;17.60;11.80;;;24.10;99.90;;;;;;4917988;29;20024;-50
2023/03/12 08:59:09;;;;;;;15.98;11.38;;;24.10;99.90;;;;;;4917370;29;20056;-49
2023/03/12 09:01:35;;;;;;;13.23;10.45;;;24.20;99.90;;;;;;4917945;29;20131;-50
2023/03/12 09:04:03;;;;;;;14.48;11.02;;;24.10;99.90;;;;;;4917774;29;20124;-49
2023/03/12 09:06:29;;;;;;;15.98;11.48;;;24.20;99.90;;;;;;4918087;29;20046;-50
2023/03/12 09:08:54;;;;;;;20.50;10.95;;;24.20;99.90;;;;;;4917883;29;20119;-49
2023/03/12 09:11:20;;;;;;;14.80;10.25;;;24.20;99.90;;;;;;4917849;29;20047;-50
2023/03/12 09:13:46;;;;;;;14.20;10.43;;;24.20;99.90;;;;;;4917466;29;20039;-49
2023/03/12 09:16:12;;;;;;;15.38;11.27;;;24.20;99.90;;;;;;4917774;29;20021;-49
2023/03/12 09:18:37;;;;;;;14.77;10.18;;;24.20;99.90;;;;;;4916610;29;20055;-50
2023/03/12 09:21:03;;;;;;;17.15;10.57;;;24.20;99.90;;;;;;4916724;29;20024;-49
2023/03/12 09:23:29;;;;;;;14.40;10.43;;;24.30;99.90;;;;;;4917778;29;20540;-49
2023/03/12 09:25:56;;;;;;;14.68;10.20;;;24.30;99.90;;;;;;4917571;29;20103;-50
2023/03/12 09:28:22;;;;;;;14.93;11.85;;;24.30;99.90;;;;;;4917447;29;20235;-49
2023/03/12 09:30:47;;;;;;;16.15;11.75;;;24.30;99.90;;;;;;4917275;29;20114;-49
2023/03/12 09:33:14;;;;;;;12.63;9.65;;;24.30;99.90;;;;;;4916692;29;20047;-49
2023/03/12 09:35:41;;;;;;;12.77;9.50;;;24.30;99.90;;;;;;4917222;29;20056;-50
2023/03/12 09:38:10;;;;;;;13.68;9.85;;;24.30;99.90;;;;;;4917288;29;20024;-49
2023/03/12 09:40:38;;;;;;;14.02;10.18;;;24.30;99.90;;;;;;4917074;29;20031;-49
2023/03/12 09:43:12;;;;;;;13.90;10.98;;;24.30;99.90;;;;;;4908565;29;20028;-49
2023/03/12 09:45:43;;;;;;;13.60;9.57;;;24.40;99.90;;;;;;4900965;29;20029;-49
2023/03/12 09:48:32;;;;;;;13.77;10.15;;;24.40;99.90;;;;;;4916684;29;20039;-48
2023/03/12 09:51:05;;;;;;;16.15;10.30;;;24.40;99.90;;;;;;4916761;29;20032;-48
2023/03/12 09:53:47;;;;;;;18.10;11.38;;;24.40;99.90;;;;;;4915911;29;20666;-49
2023/03/12 09:56:19;;;;;;;15.38;10.35;;;24.40;99.90;;;;;;4910511;29;20134;-50
2023/03/12 09:58:47;;;;;;;16.13;9.85;;;24.50;99.90;;;;;;4914864;29;20055;-49
2023/03/12 10:01:35;;;;;;;16.05;10.45;;;24.50;99.90;;;;;;4915355;29;20044;-49
2023/03/12 10:04:23;;;;;;;14.65;9.82;;;24.50;99.90;;;;;;4907241;29;20075;-49
2023/03/12 10:07:02;;;;;;;13.30;9.15;;;24.50;99.90;;;;;;4897265;29;20075;-50
2023/03/12 10:09:46;;;;;;;13.57;10.38;;;24.60;99.90;;;;;;4906489;29;20455;-50
2023/03/12 10:12:30;;;;;;;12.32;9.13;;;24.60;99.90;;;;;;4916339;29;20024;-49
2023/03/12 10:15:27;;;;;;;15.45;11.25;;;24.60;99.90;;;;;;4914596;29;20032;-49
2023/03/12 10:18:17;;;;;;;14.00;10.30;;;24.70;99.90;;;;;;4916695;29;20052;-50
2023/03/12 10:21:11;;;;;;;17.95;9.75;;;24.70;99.90;;;;;;4929740;29;20064;-49
2023/03/12 10:24:09;;;;;;;15.68;9.70;;;24.70;99.90;;;;;;4915346;29;20044;-50
2023/03/12 10:26:39;;;;;;;13.82;9.10;;;24.70;99.90;;;;;;4904205;29;20044;-49
2023/03/12 10:29:18;;;;;;;16.65;10.05;;;24.80;99.90;;;;;;4903517;29;20042;-49
2023/03/12 10:32:02;;;;;;;14.82;10.02;;;24.80;99.90;;;;;;4913739;29;20031;-51
2023/03/12 10:34:39;;;;;;;15.18;9.70;;;24.80;99.90;;;;;;4915176;29;20080;-49
2023/03/12 10:37:18;;;;;;;13.93;10.03;;;24.80;99.90;;;;;;4914707;29;20103;-49
2023/03/12 10:39:44;;;;;;;15.57;9.85;;;24.80;99.90;;;;;;4916088;29;20251;-50
2023/03/12 10:42:29;;;;;;;12.00;9.48;;;24.90;99.90;;;;;;4915937;29;20039;-49
2023/03/12 10:45:22;;;;;;;15.45;9.38;;;24.90;99.90;;;;;;4914708;29;20050;-49
2023/03/12 10:47:59;;;;;;;12.00;9.07;;;25.00;99.90;;;;;;4916017;29;20032;-50
2023/03/12 10:50:26;;;;;;;;;;;25.00;99.90;;;;;;4916576;29;20495;-50
2023/03/12 10:53:08;;;;;;;;;;;25.00;99.90;;;;;;4916589;29;19907;-50
2023/03/12 10:55:34;;;;;;;;;;;25.10;99.90;;;;;;4915530;29;20409;-49
2023/03/12 10:57:59;;;;;;;;;;;25.10;99.90;;;;;;4916666;29;19950;-50
2023/03/12 11:00:26;;;;;;;;;;;25.10;99.90;;;;;;4916768;29;20006;-50
2023/03/12 11:02:55;;;;;;;;;;;25.20;99.90;;;;;;4916512;29;20394;-49
2023/03/12 11:05:26;;;;;;;;;;;25.20;99.90;;;;;;4896177;29;19996;-50
2023/03/12 11:07:51;;;;;;;;;;;25.20;99.90;;;;;;4897526;29;19919;-49
2023/03/12 11:10:19;;;;;;;;;;;25.30;99.90;;;;;;4897523;29;19998;-49
2023/03/12 11:12:55;;;;;;;;;;;25.30;99.90;;;;;;4897487;29;19990;-49
2023/03/12 11:15:36;;;;;;;;;;;25.30;99.90;;;;;;4916085;29;19949;-49
2023/03/12 11:18:17;;;;;;;;;;;25.40;99.90;;;;;;4916244;29;20356;-49
2023/03/12 11:20:43;;;;;;;;;;;25.40;99.90;;;;;;4916518;29;19907;-49
2023/03/12 11:23:18;;;;;;;;;;;25.40;99.90;;;;;;4918698;29;19913;-50
2023/03/12 11:25:50;;;;;;;;;;;25.40;99.90;;;;;;4920112;29;19958;-50
2023/03/12 11:28:21;;;;;;;;;;;25.40;99.90;;;;;;4920084;29;19919;-49
2023/03/12 11:30:48;;;;;;;;;;;25.50;99.90;;;;;;4920079;29;19907;-50
2023/03/12 11:33:14;;;;;;;;;;;25.50;99.90;;;;;;4918510;29;20268;-49
2023/03/12 11:35:49;;;;;;;;;;;25.50;99.90;;;;;;4919882;29;19911;-49
2023/03/12 11:38:14;;;;;;;;;;;25.50;99.90;;;;;;4934388;29;19907;-50
2023/03/12 11:40:55;;;;;;;;;;;25.60;99.90;;;;;;4919774;29;19907;-50
2023/03/12 11:43:24;;;;;;;;;;;25.60;99.90;;;;;;4919430;29;19915;-49
2023/03/12 11:45:59;;;;;;;;;;;25.60;99.90;;;;;;4919567;29;19957;-50
2023/03/12 11:48:24;;;;;;;;;;;25.60;99.90;;;;;;4919549;29;19970;-50
2023/03/12 11:50:59;;;;;;;;;;;25.70;99.90;;;;;;4919690;29;19911;-51
2023/03/12 11:53:25;;;;;;;;;;;25.70;99.90;;;;;;4919495;29;19990;-52
2023/03/12 11:55:51;;;;;;;;;;;25.70;99.90;;;;;;4919604;29;19954;-51
2023/03/12 11:58:38;;;;;;;;;;;25.70;99.90;;;;;;4934194;29;19911;-50
2023/03/12 12:01:24;;;;;;;;;;;25.70;99.90;;;;;;4919278;29;19973;-50
2023/03/12 12:03:52;;;;;;;;;;;25.80;99.90;;;;;;4899889;29;19912;-50
2023/03/12 12:06:36;;;;;;;;;;;25.80;99.90;;;;;;4900538;29;19908;-50
2023/03/12 12:09:05;;;;;;;;;;;25.80;99.90;;;;;;4900439;29;20279;-50
2023/03/12 12:11:50;;;;;;;;;;;25.80;99.90;;;;;;4928187;29;19998;-50
2023/03/12 12:14:34;;;;;;;;;;;25.80;99.90;;;;;;4919292;29;20376;-50
2023/03/12 12:17:08;;;;;;;;;;;25.80;99.90;;;;;;4919222;29;19907;-49
2023/03/12 12:19:49;;;;;;;;;;;25.90;99.90;;;;;;4918983;29;19911;-49
2023/03/12 12:22:21;;;;;;;;;;;25.90;99.90;;;;;;4919126;29;20291;-50
2023/03/12 12:25:15;;;;;;;;;;;25.90;99.90;;;;;;4918924;29;19954;-50
2023/03/12 12:27:49;;;;;;;;;;;25.90;99.90;;;;;;4918921;29;19915;-49
2023/03/12 12:30:34;;;;;;;;;;;25.90;99.90;;;;;;4918344;29;20327;-50
2023/03/12 12:33:13;;;;;;;;;;;26.00;99.90;;;;;;4917236;29;19918;-49
2023/03/12 12:35:40;;;;;;;;;;;26.00;99.90;;;;;;4918492;29;19918;-49
2023/03/12 12:38:29;;;;;;;;;;;26.00;99.90;;;;;;4916367;29;19911;-48
2023/03/12 12:40:58;;;;;;;;;;;26.00;99.90;;;;;;4903726;29;19939;-48
2023/03/12 12:43:27;;;;;;;;;;;25.90;99.90;;;;;;4918481;29;20368;-48
2023/03/12 12:45:54;;;;;;;;;;;26.00;99.90;;;;;;4918841;29;20275;-48
2023/03/12 12:48:37;;;;;;;;;;;26.00;99.90;;;;;;4911983;29;19975;-48
2023/03/12 12:51:04;;;;;;;;;;;26.00;99.90;;;;;;4901830;29;19911;-47
2023/03/12 12:53:32;;;;;;;;;;;26.00;99.90;;;;;;4918231;29;20010;-48
2023/03/12 12:56:07;;;;;;;;;;;26.00;99.90;;;;;;4917785;29;19997;-48
2023/03/12 12:58:45;;;;;;;;;;;26.10;99.90;;;;;;4918150;29;19907;-48
2023/03/12 13:01:12;;;;;;;;;;;26.10;99.90;;;;;;4918316;29;19954;-49
2023/03/12 13:03:38;;;;;;;;;;;26.20;99.90;;;;;;4911333;29;19959;-49
2023/03/12 13:06:04;;;;;;;;;;;26.30;99.90;;;;;;4915980;29;20269;-49
2023/03/12 13:08:32;;;;;;;;;;;26.20;99.90;;;;;;4899058;29;20673;-49